Time;durP1;ratioP1;P1;durP2;ratioP2;P2;SDS_P1;SDS_P2;PMS_P1;PMS_P2;Temp;Humidity;BMP_temperature;BMP_pressure;BME280_temperature;BME280_humidity;BME280_pressure;Samples;Min_cycle;Max_cycle;Signal;HPM_P1;HPM_P2
2022/08/04 00:01:31;;;;;;;12.25;9.70;;;;;;;24.90;41.83;99165.09;5085620;28;20064;-67
2022/08/04 00:04:02;;;;;;;34.65;26.45;;;;;;;24.90;41.84;99160.53;5085656;28;20316;-67
2022/08/04 00:06:39;;;;;;;22.27;16.15;;;;;;;24.92;42.16;99163.91;5088601;28;20044;-67
2022/08/04 00:09:13;;;;;;;14.85;12.10;;;;;;;24.76;42.50;99142.34;5089354;28;20240;-67
2022/08/04 00:11:42;;;;;;;;;;;;;;;24.67;42.76;99154.25;5089986;28;20300;-67
2022/08/04 00:14:14;;;;;;;10.10;7.65;;;;;;;23.97;42.58;99021.63;5071962;28;20172;-67
2022/08/04 00:16:42;;;;;;;7.88;4.95;;;;;;;24.20;42.06;99062.28;5088769;28;20053;-67
2022/08/04 00:19:12;;;;;;;7.75;4.82;;;;;;;24.76;41.76;99158.59;5088874;28;20067;-67
2022/08/04 00:21:43;;;;;;;6.45;4.35;;;;;;;24.51;41.78;99114.53;5088468;28;20053;-67
2022/08/04 00:24:12;;;;;;;4.80;3.35;;;;;;;24.70;41.73;99139.50;5088656;28;20064;-67
2022/08/04 00:26:40;;;;;;;4.82;3.45;;;;;;;24.74;41.92;99157.94;5088473;28;20098;-67
2022/08/04 00:29:08;;;;;;;6.78;4.40;;;;;;;24.69;41.83;99154.09;5088441;28;20053;-66
2022/08/04 00:31:36;;;;;;;6.00;3.70;;;;;;;24.63;42.20;99153.75;5071292;28;20116;-67
2022/08/04 00:34:04;;;;;;;5.70;3.75;;;;;;;24.62;41.88;99159.34;5088647;28;20036;-67
2022/08/04 00:36:32;;;;;;;9.88;8.25;;;;;;;24.55;42.17;99155.66;5088520;28;20304;-67
2022/08/04 00:39:00;;;;;;;10.68;9.32;;;;;;;23.98;42.21;99091.84;5088297;28;20056;-67
2022/08/04 00:41:40;;;;;;;15.52;13.38;;;;;;;24.57;42.44;99167.16;5087923;28;20060;-68
2022/08/04 00:44:22;;;;;;;14.07;11.23;;;;;;;24.50;42.63;99172.44;5088315;28;20056;-67
2022/08/04 00:47:04;;;;;;;7.90;6.55;;;;;;;24.20;42.82;99138.94;5088224;28;20110;-67
2022/08/04 00:50:04;;;;;;;12.57;9.52;;;;;;;23.81;42.79;99063.13;5087644;28;20057;-67
2022/08/04 00:52:44;;;;;;;9.55;6.95;;;;;;;24.40;42.85;99162.88;5079980;28;20240;-67
2022/08/04 00:55:32;;;;;;;4.68;3.60;;;;;;;24.34;42.86;99159.00;5087816;28;20064;-67
2022/08/04 00:58:20;;;;;;;7.40;6.18;;;;;;;24.33;42.67;99163.56;5087996;28;20110;-67
2022/08/04 01:00:56;;;;;;;16.73;12.93;;;;;;;24.22;42.80;99136.88;5087818;28;20320;-67
2022/08/04 01:03:33;;;;;;;14.02;11.18;;;;;;;24.29;42.57;99161.41;5088060;28;20098;-67
2022/08/04 01:06:11;;;;;;;9.60;8.52;;;;;;;24.17;42.83;99141.16;5087586;28;20056;-67
2022/08/04 01:09:02;;;;;;;9.75;7.32;;;;;;;24.27;42.94;99152.59;5087643;28;20305;-67
2022/08/04 01:11:45;;;;;;;9.15;6.53;;;;;;;23.32;43.09;99028.16;5087490;28;20110;-67
2022/08/04 01:14:29;;;;;;;6.72;5.25;;;;;;;24.20;43.11;99168.72;5087667;28;20052;-67
2022/08/04 01:17:06;;;;;;;4.33;3.47;;;;;;;23.89;42.73;99138.88;5087091;28;20056;-67
2022/08/04 01:20:00;;;;;;;4.82;3.40;;;;;;;24.10;43.26;99164.53;5087343;28;20053;-67
2022/08/04 01:23:15;;;;;;;6.03;3.45;;;;;;;23.91;43.42;99152.22;5085875;28;20106;-67
2022/08/04 01:26:08;;;;;;;5.55;3.53;;;;;;;23.77;43.50;99124.03;5087474;28;20057;-67
2022/08/04 01:28:47;;;;;;;4.32;3.35;;;;;;;23.96;43.67;99169.63;5041415;28;20106;-67
2022/08/04 01:31:25;;;;;;;6.45;2.72;;;;;;;23.95;43.35;99167.09;5087053;28;20056;-67
2022/08/04 01:33:59;;;;;;;3.97;2.70;;;;;;;23.90;43.25;99162.19;5087004;28;20057;-67
2022/08/04 01:36:29;;;;;;;3.58;2.63;;;;;;;23.85;43.08;99167.28;5087362;28;20057;-66
2022/08/04 01:38:57;;;;;;;4.60;2.80;;;;;;;23.85;43.11;99164.59;5086967;28;20056;-67
2022/08/04 01:41:25;;;;;;;4.30;2.88;;;;;;;23.81;42.93;99160.53;5086968;28;20056;-67
2022/08/04 01:43:56;;;;;;;5.55;2.90;;;;;;;23.68;43.02;99138.59;5087072;28;20320;-67
2022/08/04 01:46:26;;;;;;;6.60;3.42;;;;;;;23.87;43.09;99164.41;5087102;28;20109;-67
2022/08/04 01:48:54;;;;;;;9.02;7.63;;;;;;;23.83;42.82;99166.63;5086916;28;20053;-67
2022/08/04 01:51:24;;;;;;;15.10;13.45;;;;;;;23.84;43.12;99168.31;5086758;28;20274;-67
2022/08/04 01:53:51;;;;;;;8.35;6.30;;;;;;;23.72;43.18;99169.69;5086958;28;20106;-66
2022/08/04 01:56:20;;;;;;;8.05;7.05;;;;;;;23.76;43.24;99167.50;5086987;28;20064;-67
2022/08/04 01:58:48;;;;;;;6.75;4.85;;;;;;;23.61;43.34;99143.00;5086736;28;20060;-67
2022/08/04 02:01:15;;;;;;;4.90;4.40;;;;;;;23.69;43.18;99157.34;5086418;28;20109;-67
2022/08/04 02:03:46;;;;;;;4.47;3.50;;;;;;;23.68;43.46;99154.81;5086334;28;20060;-67
2022/08/04 02:06:22;;;;;;;5.40;3.78;;;;;;;23.69;43.67;99160.06;5087160;28;20036;-66
2022/08/04 02:08:57;;;;;;;4.13;2.90;;;;;;;23.13;43.44;99069.06;5086296;28;20056;-67
2022/08/04 02:11:24;;;;;;;4.63;3.50;;;;;;;23.67;43.51;99159.41;5086732;28;20102;-67
2022/08/04 02:14:06;;;;;;;4.38;3.47;;;;;;;23.72;43.70;99161.56;5086391;28;20056;-66
2022/08/04 02:16:43;;;;;;;5.05;3.40;;;;;;;23.67;43.94;99159.41;5086486;28;20056;-67
2022/08/04 02:19:24;;;;;;;5.38;3.17;;;;;;;23.56;43.67;99131.88;5086337;28;20227;-67
2022/08/04 02:21:57;;;;;;;3.40;2.67;;;;;;;23.61;44.16;99160.09;5086150;28;20057;-66
2022/08/04 02:24:27;;;;;;;4.13;3.28;;;;;;;23.52;44.16;99154.88;5086400;28;20259;-67
2022/08/04 02:26:56;;;;;;;5.22;2.92;;;;;;;23.52;43.87;99152.16;5085981;28;20056;-66
2022/08/04 02:29:34;;;;;;;3.50;2.90;;;;;;;23.53;44.20;99152.00;5085489;28;20316;-67
2022/08/04 02:32:05;;;;;;;7.28;5.85;;;;;;;22.84;44.20;99034.47;5085952;28;20110;-67
2022/08/04 02:34:39;;;;;;;16.30;14.60;;;;;;;23.51;44.20;99147.75;5086597;28;20090;-67
2022/08/04 02:37:09;;;;;;;14.23;11.45;;;;;;;23.47;44.20;99143.72;5086016;28;20106;-67
2022/08/04 02:39:37;;;;;;;10.63;9.05;;;;;;;23.48;43.94;99148.09;5085943;28;20052;-67
2022/08/04 02:42:05;;;;;;;8.50;5.72;;;;;;;23.46;44.25;99144.72;5068386;28;20319;-67
2022/08/04 02:44:35;;;;;;;7.15;4.72;;;;;;;23.43;44.36;99143.22;5086038;28;20258;-67
2022/08/04 02:47:04;;;;;;;4.68;3.53;;;;;;;23.28;44.45;99143.06;5086092;28;20185;-67
2022/08/04 02:49:37;;;;;;;3.90;3.13;;;;;;;23.14;44.48;99116.69;5085625;28;20240;-67
2022/08/04 02:52:11;;;;;;;6.85;3.08;;;;;;;22.99;44.30;99085.97;5086304;28;20044;-67
2022/08/04 02:54:41;;;;;;;3.55;2.78;;;;;;;22.32;44.48;98988.84;5086097;28;20259;-67
2022/08/04 02:57:09;;;;;;;4.20;3.00;;;;;;;23.23;44.27;99140.00;5085593;28;20056;-67
2022/08/04 02:59:48;;;;;;;4.05;2.50;;;;;;;23.21;44.66;99135.78;5085552;28;20190;-67
2022/08/04 03:02:18;;;;;;;6.45;3.30;;;;;;;23.23;44.10;99145.41;5085907;28;20102;-67
2022/08/04 03:04:54;;;;;;;4.50;2.90;;;;;;;22.90;44.64;99089.69;5085624;28;20399;-67
2022/08/04 03:07:59;;;;;;;4.15;2.90;;;;;;;22.40;44.73;99029.38;5085098;28;20052;-66
2022/08/04 03:10:47;;;;;;;4.72;2.70;;;;;;;22.91;44.81;99118.38;5034971;28;20060;-67
2022/08/04 03:13:43;;;;;;;3.83;2.75;;;;;;;22.91;44.88;99137.31;5085688;28;20236;-66
2022/08/04 03:16:33;;;;;;;4.25;3.22;;;;;;;22.87;45.14;99134.09;5085161;28;20094;-67
2022/08/04 03:19:42;;;;;;;13.57;10.68;;;;;;;22.91;44.91;99137.31;5085183;28;20060;-66
2022/08/04 03:22:47;;;;;;;10.30;7.65;;;;;;;22.81;44.95;99137.47;5085242;28;20114;-66
2022/08/04 03:25:30;;;;;;;7.63;5.10;;;;;;;22.76;45.25;99139.00;5085532;28;20061;-67
2022/08/04 03:28:49;;;;;;;6.07;4.47;;;;;;;22.79;45.19;99144.06;5085294;28;20062;-66
2022/08/04 03:31:49;;;;;;;5.75;3.83;;;;;;;22.77;45.26;99143.38;5085138;28;20446;-67
2022/08/04 03:34:33;;;;;;;5.75;3.88;;;;;;;22.68;45.23;99119.06;5085468;28;20082;-66
2022/08/04 03:37:19;;;;;;;3.92;3.05;;;;;;;22.01;45.15;99001.28;5085184;28;20056;-66
2022/08/04 03:40:35;;;;;;;6.60;3.53;;;;;;;22.57;46.06;99143.69;5085265;28;20267;-66
2022/08/04 03:43:38;;;;;;;6.50;2.80;;;;;;;22.66;45.92;99148.09;5085285;28;20058;-66
2022/08/04 03:46:44;;;;;;;3.38;2.80;;;;;;;22.49;46.05;99121.19;5081079;28;20117;-66
2022/08/04 03:49:46;;;;;;;6.25;4.32;;;;;;;22.56;45.79;99122.25;5049879;28;20049;-67
2022/08/04 03:55:46;;;;;;;12.88;10.20;;;;;;;22.66;45.81;99142.69;5085286;28;20040;-67
2022/08/04 03:58:52;;;;;;;11.00;9.35;;;;;;;22.67;45.90;99138.97;5084957;28;20266;-66
2022/08/04 04:01:34;;;;;;;;;;;;;;;22.40;46.52;99144.59;5085227;28;20052;-67
2022/08/04 04:04:32;;;;;;;8.02;6.35;;;;;;;22.55;46.22;99139.47;5085087;28;19916;-66
2022/08/04 04:07:22;;;;;;;7.72;5.28;;;;;;;22.56;46.42;99136.59;5084868;28;20056;-67
2022/08/04 04:10:07;;;;;;;12.80;11.48;;;;;;;22.62;46.31;99140.50;5085035;28;20170;-67
2022/08/04 04:13:02;;;;;;;14.57;12.52;;;;;;;22.61;46.30;99141.50;5084904;28;20063;-67
2022/08/04 04:15:40;;;;;;;;;;;;;;;22.41;47.12;99127.41;5085299;28;20056;-66
2022/08/04 04:18:36;;;;;;;13.57;9.20;;;;;;;22.52;46.71;99142.47;5084970;28;19974;-66
2022/08/04 04:21:27;;;;;;;9.40;6.88;;;;;;;22.56;46.35;99139.31;5072007;28;20056;-66
2022/08/04 04:24:06;;;;;;;7.18;4.82;;;;;;;22.58;46.25;99144.53;5084596;28;20057;-66
2022/08/04 04:26:46;;;;;;;5.63;4.35;;;;;;;22.56;46.46;99151.97;5084447;28;20060;-66
2022/08/04 04:29:35;;;;;;;6.72;3.97;;;;;;;22.56;46.46;99160.06;5084483;28;20102;-67
2022/08/04 04:32:09;;;;;;;4.00;3.38;;;;;;;22.51;46.09;99160.53;5084713;28;20255;-66
2022/08/04 04:34:40;;;;;;;;;;;;;;;22.31;46.95;99169.88;5084843;28;20098;-67
2022/08/04 04:37:35;;;;;;;4.22;2.95;;;;;;;22.35;46.55;99166.69;5084390;28;19971;-66
2022/08/04 04:40:20;;;;;;;5.88;3.20;;;;;;;22.16;46.68;99139.13;5084704;28;20316;-66
2022/08/04 04:42:55;;;;;;;;;;;;;;;22.15;47.02;99172.53;5084966;28;20106;-67
2022/08/04 04:45:29;;;;;;;5.30;3.20;;;;;;;22.30;46.56;99171.75;5084615;28;19916;-66
2022/08/04 04:48:04;;;;;;;5.45;3.15;;;;;;;22.30;46.70;99170.91;5084617;28;20064;-66
2022/08/04 04:50:41;;;;;;;5.93;3.58;;;;;;;22.38;46.64;99168.22;5083800;28;20106;-67
2022/08/04 04:53:20;;;;;;;5.00;3.78;;;;;;;22.41;46.97;99181.44;5087676;28;20106;-66
2022/08/04 04:55:56;;;;;;;4.45;3.53;;;;;;;22.39;47.01;99183.41;5088345;28;20083;-66
2022/08/04 04:58:24;;;;;;;6.35;3.78;;;;;;;22.37;46.70;99177.34;5088120;28;20228;-67
2022/08/04 05:01:14;;;;;;;4.90;3.40;;;;;;;22.37;47.58;99182.72;5087797;28;20052;-67
2022/08/04 05:04:07;;;;;;;4.68;3.72;;;;;;;22.39;47.60;99178.84;5087457;28;20283;-66
2022/08/04 05:06:51;;;;;;;9.57;3.78;;;;;;;22.33;47.66;99162.47;5087685;28;20064;-67
2022/08/04 05:09:29;;;;;;;4.38;3.65;;;;;;;22.30;47.31;99149.28;5087552;28;20161;-67
2022/08/04 05:12:24;;;;;;;4.60;3.50;;;;;;;22.52;48.05;99177.56;5087754;28;20056;-67
2022/08/04 05:14:54;;;;;;;5.18;4.05;;;;;;;22.55;47.07;99180.81;5087318;28;20109;-67
2022/08/04 05:17:27;;;;;;;5.90;4.18;;;;;;;22.58;47.32;99179.66;5087308;28;20113;-66
2022/08/04 05:20:03;;;;;;;6.30;4.03;;;;;;;22.60;47.78;99186.56;5087768;28;20110;-66
2022/08/04 05:22:36;;;;;;;6.18;5.50;;;;;;;22.63;47.46;99188.94;5087485;28;20259;-67
2022/08/04 05:25:08;;;;;;;8.77;6.65;;;;;;;22.63;47.73;99186.25;5087299;28;20064;-66
2022/08/04 05:27:39;;;;;;;137.38;98.93;;;;;;;22.45;47.30;99149.53;5087575;28;20262;-67
2022/08/04 05:30:10;;;;;;;59.67;43.30;;;;;;;22.67;47.72;99193.00;5087380;28;20056;-67
2022/08/04 05:32:46;;;;;;;33.80;25.55;;;;;;;22.74;47.80;99195.88;5087163;28;20087;-66
2022/08/04 05:35:27;;;;;;;45.95;29.45;;;;;;;22.72;47.29;99176.28;5087368;28;20114;-67
2022/08/04 05:37:57;;;;;;;18.85;14.07;;;;;;;22.59;47.25;99162.44;5087638;28;20113;-67
2022/08/04 05:40:26;;;;;;;12.63;9.27;;;;;;;22.77;47.22;99192.84;5087100;28;20053;-67
2022/08/04 05:42:55;;;;;;;11.18;7.93;;;;;;;22.82;47.16;99186.94;5086787;28;20060;-67
2022/08/04 05:45:24;;;;;;;7.35;4.82;;;;;;;22.79;46.95;99185.44;5087166;28;20251;-67
2022/08/04 05:47:53;;;;;;;5.07;4.30;;;;;;;22.82;46.91;99184.25;5086684;28;20102;-66
2022/08/04 05:50:22;;;;;;;7.93;4.43;;;;;;;22.82;46.89;99195.91;5086607;28;20109;-67
2022/08/04 05:52:51;;;;;;;5.10;4.32;;;;;;;22.76;46.54;99171.41;5087041;28;20056;-67
2022/08/04 05:55:20;;;;;;;9.80;4.57;;;;;;;22.89;46.44;99196.91;5086796;28;20369;-67
2022/08/04 05:57:48;;;;;;;6.68;4.20;;;;;;;22.91;46.40;99194.91;5087462;28;20102;-67
2022/08/04 06:00:17;;;;;;;7.68;4.28;;;;;;;22.89;46.57;99183.41;5086846;28;20048;-67
2022/08/04 06:02:47;;;;;;;6.35;4.25;;;;;;;23.01;45.92;99203.69;5085872;28;20113;-67
2022/08/04 06:05:19;;;;;;;6.82;4.05;;;;;;;22.53;46.19;99126.09;5087065;28;20304;-66
2022/08/04 06:07:47;;;;;;;8.63;3.83;;;;;;;23.02;46.42;99201.84;5069223;28;20051;-66
2022/08/04 06:10:16;;;;;;;8.23;4.65;;;;;;;23.04;46.49;99200.66;5086616;28;20258;-67
2022/08/04 06:12:49;;;;;;;8.15;4.15;;;;;;;20.79;46.42;98831.88;5069315;28;20107;-67
2022/08/04 06:15:19;;;;;;;7.13;5.07;;;;;;;22.85;46.43;99167.69;5086799;28;20089;-66
2022/08/04 06:17:49;;;;;;;8.57;4.55;;;;;;;23.10;46.81;99211.81;5086377;28;20320;-65
2022/08/04 06:20:19;;;;;;;6.43;5.00;;;;;;;23.10;46.53;99212.66;5086290;28;20060;-66
2022/08/04 06:22:50;;;;;;;8.23;4.63;;;;;;;23.18;46.51;99211.81;5086194;28;20056;-65
2022/08/04 06:25:20;;;;;;;8.98;4.43;;;;;;;23.23;46.74;99209.44;5086119;28;20098;-66
2022/08/04 06:27:49;;;;;;;6.63;5.03;;;;;;;23.24;46.65;99208.44;5086169;28;20064;-67
2022/08/04 06:30:19;;;;;;;8.10;4.75;;;;;;;23.28;46.45;99213.38;5086110;28;20052;-66
2022/08/04 06:32:54;;;;;;;6.75;5.00;;;;;;;23.31;45.63;99201.38;5085786;28;20102;-66
2022/08/04 06:35:25;;;;;;;7.25;3.92;;;;;;;23.30;45.38;99189.72;5086048;28;20362;-66
2022/08/04 06:37:55;;;;;;;4.40;3.58;;;;;;;23.39;45.12;99198.66;5085913;28;20356;-66
2022/08/04 06:40:25;;;;;;;5.10;3.85;;;;;;;23.46;45.00;99204.22;5085770;28;20308;-66
2022/08/04 06:42:53;;;;;;;6.43;3.78;;;;;;;23.49;44.17;99203.88;5085844;28;20052;-66
2022/08/04 06:45:22;;;;;;;4.60;3.80;;;;;;;23.52;44.00;99201.69;5085928;28;20056;-66
2022/08/04 06:47:49;;;;;;;5.15;3.30;;;;;;;23.58;43.86;99205.56;5085801;28;20144;-66
2022/08/04 06:50:17;;;;;;;6.30;4.25;;;;;;;23.68;43.16;99206.22;5085292;28;20324;-67
2022/08/04 06:52:46;;;;;;;4.18;3.20;;;;;;;23.77;42.77;99207.91;5085383;28;20056;-66
2022/08/04 06:55:14;;;;;;;5.72;3.47;;;;;;;23.91;42.72;99201.78;5086051;28;20052;-66
2022/08/04 06:57:43;;;;;;;4.00;3.05;;;;;;;24.09;42.32;99203.44;5085573;28;20078;-66
2022/08/04 07:00:13;;;;;;;4.80;3.50;;;;;;;24.34;41.84;99196.91;5085719;28;20090;-66
2022/08/04 07:02:44;;;;;;;4.10;3.55;;;;;;;24.47;40.89;99196.34;5085300;28;20118;-66
2022/08/04 07:05:12;;;;;;;4.38;3.63;;;;;;;24.55;40.13;99197.16;5085524;28;20324;-66
2022/08/04 07:07:40;;;;;;;5.07;3.28;;;;;;;24.75;40.02;99186.72;5085084;28;20102;-66
2022/08/04 07:10:10;;;;;;;6.60;4.03;;;;;;;24.95;38.03;99187.94;5085291;28;20114;-66
2022/08/04 07:12:40;;;;;;;9.20;5.80;;;;;;;25.26;38.19;99192.47;5084845;28;20049;-67
2022/08/04 07:15:08;;;;;;;5.70;4.07;;;;;;;25.45;38.89;99192.00;5085073;28;20374;-67
2022/08/04 07:17:36;;;;;;;5.03;3.60;;;;;;;24.84;37.75;99055.56;5084914;28;20064;-67
2022/08/04 07:20:05;;;;;;;10.13;7.07;;;;;;;25.86;38.24;99184.28;5085100;28;20373;-67
2022/08/04 07:22:33;;;;;;;8.73;6.13;;;;;;;26.06;37.49;99186.47;5085219;28;20053;-67
2022/08/04 07:25:00;;;;;;;5.45;4.03;;;;;;;26.24;37.14;99184.22;5085162;28;20106;-67
2022/08/04 07:27:29;;;;;;;4.32;3.88;;;;;;;26.38;37.31;99185.22;5084858;28;20060;-66
2022/08/04 07:29:56;;;;;;;5.72;3.67;;;;;;;26.39;36.68;99165.16;5085137;28;20110;-66
2022/08/04 07:32:24;;;;;;;4.88;4.38;;;;;;;26.45;36.38;99164.41;5085005;28;20052;-66
2022/08/04 07:34:52;;;;;;;5.25;3.80;;;;;;;26.59;35.65;99179.00;5084954;28;20078;-66
2022/08/04 07:37:19;;;;;;;4.22;3.22;;;;;;;26.59;36.53;99177.13;5085101;28;20319;-66
2022/08/04 07:39:47;;;;;;;4.13;3.22;;;;;;;26.69;36.07;99177.69;5084466;28;20052;-66
2022/08/04 07:42:15;;;;;;;5.72;3.50;;;;;;;26.76;36.50;99170.44;5085136;28;20235;-67
2022/08/04 07:44:45;;;;;;;4.13;3.63;;;;;;;26.94;34.94;99175.44;5084933;28;20101;-67
2022/08/04 07:47:13;;;;;;;5.32;3.75;;;;;;;27.06;35.41;99151.28;5085015;28;20278;-66
2022/08/04 07:49:41;;;;;;;15.07;8.38;;;;;;;26.95;35.86;99108.28;5084465;28;20110;-67
2022/08/04 07:52:10;;;;;;;7.40;4.82;;;;;;;27.26;35.80;99148.75;5085347;28;20086;-67
2022/08/04 07:54:40;;;;;;;5.88;4.05;;;;;;;27.54;34.66;99165.94;5084897;28;20114;-66
2022/08/04 07:57:07;;;;;;;6.15;4.45;;;;;;;27.75;35.28;99167.78;5084935;28;20255;-66
2022/08/04 07:59:35;;;;;;;4.97;4.00;;;;;;;27.85;34.53;99167.47;5084812;28;20362;-66
2022/08/04 08:02:04;;;;;;;7.15;4.50;;;;;;;27.93;34.73;99175.47;5084707;28;20084;-66
2022/08/04 08:04:32;;;;;;;6.60;3.80;;;;;;;28.12;34.52;99174.75;5084680;28;20060;-66
2022/08/04 08:06:59;;;;;;;5.60;4.63;;;;;;;28.13;33.74;99166.38;5084600;28;20177;-67
2022/08/04 08:09:26;;;;;;;6.30;4.30;;;;;;;28.28;34.63;99163.50;5084587;28;20338;-66
2022/08/04 08:11:54;;;;;;;5.60;3.72;;;;;;;28.42;33.94;99168.00;5084717;28;20075;-67
2022/08/04 08:14:22;;;;;;;8.48;3.92;;;;;;;28.54;33.48;99170.97;5084476;28;20106;-67
2022/08/04 08:16:49;;;;;;;6.50;4.00;;;;;;;28.73;34.77;99170.19;5084647;28;20059;-67
2022/08/04 08:19:18;;;;;;;5.65;4.28;;;;;;;28.86;34.09;99166.66;5084710;28;20064;-66
2022/08/04 08:21:49;;;;;;;10.30;4.82;;;;;;;28.63;33.33;99138.91;5084441;28;20094;-67
2022/08/04 08:24:17;;;;;;;7.72;3.95;;;;;;;28.92;34.35;99160.38;5084342;28;20053;-67
2022/08/04 08:26:45;;;;;;;6.32;4.22;;;;;;;29.07;33.74;99158.34;5086395;28;20240;-67
2022/08/04 08:29:14;;;;;;;5.85;3.92;;;;;;;29.07;34.01;99141.97;5088554;28;20067;-66
2022/08/04 08:31:42;;;;;;;5.53;3.80;;;;;;;29.22;33.88;99166.31;5087944;28;20057;-67
2022/08/04 08:34:11;;;;;;;7.95;4.75;;;;;;;29.29;33.22;99155.41;5088482;28;20064;-66
2022/08/04 08:36:45;;;;;;;8.18;4.68;;;;;;;29.38;33.42;99152.25;5087871;28;20056;-67
2022/08/04 08:39:16;;;;;;;6.50;4.40;;;;;;;29.51;33.32;99159.59;5087682;28;20060;-67
2022/08/04 08:42:27;;;;;;;5.38;4.10;;;;;;;29.41;32.71;99151.00;5087755;28;20102;-67
2022/08/04 08:45:31;;;;;;;4.65;3.53;;;;;;;29.36;33.25;99157.09;5087807;28;20115;-67
2022/08/04 08:48:18;;;;;;;6.18;4.03;;;;;;;29.48;32.59;99159.19;5077449;28;20056;-67
2022/08/04 08:51:02;;;;;;;6.00;4.03;;;;;;;29.52;32.95;99144.88;5087473;28;20052;-67
2022/08/04 08:53:47;;;;;;;5.35;3.58;;;;;;;29.77;32.75;99156.03;5070179;28;20114;-67
2022/08/04 08:56:28;;;;;;;5.40;4.03;;;;;;;29.90;32.49;99156.00;5087971;28;20056;-66
2022/08/04 08:59:26;;;;;;;6.38;3.97;;;;;;;29.49;32.81;99074.34;5087762;28;20193;-67
2022/08/04 09:02:11;;;;;;;6.50;3.70;;;;;;;30.21;32.90;99154.50;5087130;28;20056;-67
2022/08/04 09:05:06;;;;;;;5.78;4.45;;;;;;;30.27;31.76;99145.41;5087728;28;20216;-66
2022/08/04 09:08:08;;;;;;;4.28;3.28;;;;;;;30.26;31.81;99150.06;5082923;28;20057;-67
2022/08/04 09:10:44;;;;;;;4.45;3.08;;;;;;;30.34;32.71;99132.56;5071894;28;20259;-66
2022/08/04 09:13:20;;;;;;;4.82;3.00;;;;;;;30.40;31.22;99152.72;5087253;28;20052;-67
2022/08/04 09:15:57;;;;;;;12.18;3.85;;;;;;;30.10;31.74;99082.16;5087562;28;20110;-67
2022/08/04 09:18:27;;;;;;;6.32;3.42;;;;;;;30.55;31.96;99151.38;5087274;28;20060;-67
2022/08/04 09:21:11;;;;;;;4.78;3.40;;;;;;;30.69;31.64;99146.72;5087300;28;20119;-67
2022/08/04 09:23:49;;;;;;;5.15;3.70;;;;;;;30.77;31.31;99143.72;5087066;28;20044;-67
2022/08/04 09:26:21;;;;;;;8.10;4.22;;;;;;;30.77;31.89;99146.47;5087065;28;20147;-66
2022/08/04 09:29:01;;;;;;;6.88;3.28;;;;;;;30.80;31.33;99136.97;5087439;28;20259;-67
2022/08/04 09:31:33;;;;;;;8.50;3.80;;;;;;;30.90;31.71;99135.44;5087322;28;20254;-67
2022/08/04 09:34:08;;;;;;;6.60;4.53;;;;;;;30.88;31.26;99132.06;5087469;28;20358;-66
2022/08/04 09:36:40;;;;;;;4.47;2.75;;;;;;;30.93;30.83;99136.88;5087117;28;20263;-67
2022/08/04 09:39:19;;;;;;;3.95;3.30;;;;;;;30.98;30.43;99124.22;5086971;28;20100;-67
2022/08/04 09:42:04;;;;;;;5.03;2.95;;;;;;;30.93;30.08;99121.31;5087032;28;20056;-67
2022/08/04 09:44:39;;;;;;;3.35;2.38;;;;;;;31.00;30.02;99124.00;5086840;28;20064;-67
2022/08/04 09:47:26;;;;;;;10.82;4.05;;;;;;;31.00;30.29;99123.16;5086525;28;20056;-67
2022/08/04 09:50:02;;;;;;;5.85;3.25;;;;;;;31.09;30.78;99125.38;5086354;28;20121;-67
2022/08/04 09:52:44;;;;;;;4.25;2.67;;;;;;;31.21;29.27;99126.34;5086669;28;20086;-67
2022/08/04 09:55:20;;;;;;;5.00;2.97;;;;;;;31.19;29.20;99103.00;5086994;28;20243;-67
2022/08/04 09:58:01;;;;;;;3.53;2.72;;;;;;;30.92;29.06;99050.38;5086625;28;20064;-67
2022/08/04 10:00:36;;;;;;;6.25;3.10;;;;;;;31.31;29.06;99108.59;5086580;28;20110;-67
2022/08/04 10:03:04;;;;;;;4.90;3.28;;;;;;;31.37;29.12;99104.97;5087281;28;20048;-67
2022/08/04 10:05:49;;;;;;;5.75;3.10;;;;;;;31.37;27.76;99105.81;5086712;28;20057;-67
2022/08/04 10:08:32;;;;;;;4.68;3.00;;;;;;;30.96;28.80;99068.88;5086032;28;20053;-67
2022/08/04 10:11:07;;;;;;;4.20;2.70;;;;;;;31.32;28.66;99107.53;5086434;28;20056;-67
2022/08/04 10:13:56;;;;;;;4.28;2.50;;;;;;;31.42;26.51;99100.50;5086137;28;20060;-67
2022/08/04 10:16:45;;;;;;;4.70;2.55;;;;;;;31.50;27.03;99115.81;5086008;28;20126;-67
2022/08/04 10:19:25;;;;;;;4.50;2.50;;;;;;;31.30;26.09;99088.59;5086451;28;20263;-67
2022/08/04 10:22:06;;;;;;;4.78;2.47;;;;;;;31.38;26.41;99101.16;5086114;28;20102;-67
2022/08/04 10:24:46;;;;;;;5.20;2.83;;;;;;;31.43;26.54;99099.44;5085969;28;20059;-67
2022/08/04 10:27:21;;;;;;;3.92;2.20;;;;;;;31.49;26.52;99101.28;5086011;28;20056;-67
2022/08/04 10:29:50;;;;;;;3.65;2.33;;;;;;;31.51;25.85;99095.56;5086355;28;20041;-67
2022/08/04 10:32:21;;;;;;;7.97;2.53;;;;;;;31.48;26.61;99099.59;5086079;28;20052;-67
2022/08/04 10:35:01;;;;;;;3.28;2.13;;;;;;;31.61;25.71;99087.66;5085821;28;20083;-68
2022/08/04 10:37:32;;;;;;;4.95;2.40;;;;;;;31.73;26.92;99094.06;5086037;28;20350;-67
2022/08/04 10:42:59;;;;;;;4.28;2.65;;;;;;;31.20;25.73;98996.00;5065977;28;20052;-68
2022/08/04 10:45:36;;;;;;;3.40;2.30;;;;;;;31.82;25.35;99081.78;5085882;28;20074;-68
2022/08/04 10:48:11;;;;;;;4.10;2.17;;;;;;;31.84;25.51;99078.81;5085462;28;20056;-68
2022/08/04 10:50:47;;;;;;;3.20;2.30;;;;;;;31.83;26.60;99088.09;5085077;28;20060;-68
2022/08/04 10:53:20;;;;;;;5.32;2.38;;;;;;;31.89;25.75;99081.69;5085484;28;20110;-68
2022/08/04 10:55:49;;;;;;;;;;;;;;;31.65;25.89;99075.19;5086106;28;20246;-68
2022/08/04 10:58:20;;;;;;;2.97;2.08;;;;;;;31.74;25.90;99053.81;5085937;28;19916;-68
2022/08/04 11:00:55;;;;;;;4.03;2.58;;;;;;;31.82;26.06;99059.84;5085681;28;20177;-68
2022/08/04 11:03:26;;;;;;;3.45;2.40;;;;;;;31.93;26.89;99066.47;5085171;28;20048;-68
2022/08/04 11:05:55;;;;;;;3.40;2.38;;;;;;;31.86;26.98;99055.59;5085605;28;20125;-68
2022/08/04 11:08:26;;;;;;;4.45;2.55;;;;;;;32.03;25.55;99077.72;5085171;28;20056;-68
2022/08/04 11:11:01;;;;;;;3.10;2.50;;;;;;;32.02;25.11;99067.00;5085403;28;20056;-68
2022/08/04 11:13:34;;;;;;;3.45;2.50;;;;;;;31.96;25.42;99071.50;5085480;28;20056;-67
2022/08/04 11:16:08;;;;;;;3.15;2.50;;;;;;;31.96;25.20;99038.59;5085435;28;20057;-68
2022/08/04 11:18:44;;;;;;;3.30;2.30;;;;;;;31.89;25.39;99010.44;5085230;28;20067;-68
2022/08/04 11:21:15;;;;;;;3.28;2.47;;;;;;;32.24;25.90;99059.94;5084834;28;20049;-67
2022/08/04 11:23:48;;;;;;;4.05;2.25;;;;;;;32.28;25.52;99061.16;5085562;28;20247;-67
2022/08/04 11:26:23;;;;;;;4.93;2.20;;;;;;;31.91;25.61;99036.56;5085279;28;20113;-69
2022/08/04 11:29:08;;;;;;;3.75;2.70;;;;;;;32.08;26.58;99050.47;5085149;28;20057;-68
2022/08/04 11:31:43;;;;;;;4.28;2.67;;;;;;;31.93;26.00;99045.38;5084960;28;20110;-69
2022/08/04 11:34:19;;;;;;;5.10;2.25;;;;;;;32.07;25.94;99053.44;5084709;28;20106;-68
2022/08/04 11:36:52;;;;;;;7.97;2.53;;;;;;;32.09;26.21;99049.38;5084746;28;20056;-69
2022/08/04 11:39:28;;;;;;;4.03;2.43;;;;;;;31.97;27.71;99034.78;5085084;28;20056;-69
2022/08/04 11:42:01;;;;;;;4.70;2.35;;;;;;;32.00;31.11;99031.59;5084877;28;20104;-70
2022/08/04 11:44:34;;;;;;;3.35;2.72;;;;;;;32.18;31.21;99047.16;5085235;28;20044;-69
2022/08/04 11:47:11;;;;;;;3.38;2.55;;;;;;;32.16;30.55;99047.41;5085232;28;20052;-69
2022/08/04 11:49:44;;;;;;;3.30;2.50;;;;;;;32.11;27.80;99039.03;5067177;28;20107;-69
2022/08/04 11:52:14;;;;;;;5.00;2.75;;;;;;;31.90;28.30;99045.00;5084998;28;20083;-69
2022/08/04 11:54:43;;;;;;;3.65;2.70;;;;;;;31.74;29.51;99045.59;5084988;28;20094;-69
2022/08/04 11:57:10;;;;;;;7.53;2.35;;;;;;;31.41;29.89;99021.31;5084954;28;20075;-68
2022/08/04 11:59:40;;;;;;;3.85;2.33;;;;;;;31.57;28.12;99035.25;5085159;28;20376;-68
2022/08/04 12:02:25;;;;;;;3.15;2.25;;;;;;;31.64;28.47;99034.31;5087627;28;20087;-69
2022/08/04 12:04:57;;;;;;;4.07;2.50;;;;;;;31.71;29.02;99027.72;5088873;28;20052;-69
2022/08/04 12:07:39;;;;;;;6.07;2.75;;;;;;;31.58;28.77;98998.56;5088942;28;20052;-68
2022/08/04 12:10:15;;;;;;;3.47;2.40;;;;;;;31.76;29.81;99027.03;5088783;28;20098;-69
2022/08/04 12:12:47;;;;;;;3.40;2.42;;;;;;;31.66;28.88;99023.97;5088525;28;20082;-69
2022/08/04 12:15:20;;;;;;;6.85;2.75;;;;;;;31.54;28.03;99022.00;5088907;28;20182;-71
2022/08/04 12:17:57;;;;;;;5.15;3.35;;;;;;;31.64;26.60;99026.13;5088918;28;20292;-69
2022/08/04 12:20:27;;;;;;;5.25;3.03;;;;;;;31.66;27.49;99030.28;5088423;28;20123;-70
2022/08/04 12:22:56;;;;;;;3.80;2.40;;;;;;;31.51;28.04;99036.16;5088948;28;20082;-69